sensor_id;sensor_type;location;lat;lon;timestamp;temperature;humidity
7254;DHT22;4060;49.186;9.226;2024-02-26T00:00:49;10.70;58.50
7254;DHT22;4060;49.186;9.226;2024-02-26T00:03:22;10.60;58.40
7254;DHT22;4060;49.186;9.226;2024-02-26T00:05:57;10.60;58.50
7254;DHT22;4060;49.186;9.226;2024-02-26T00:08:31;10.60;58.50
7254;DHT22;4060;49.186;9.226;2024-02-26T00:11:01;10.60;58.50
7254;DHT22;4060;49.186;9.226;2024-02-26T00:13:31;10.60;58.60
7254;DHT22;4060;49.186;9.226;2024-02-26T00:16:01;10.60;58.60
7254;DHT22;4060;49.186;9.226;2024-02-26T00:18:34;10.60;58.60
7254;DHT22;4060;49.186;9.226;2024-02-26T00:21:05;10.60;58.70
7254;DHT22;4060;49.186;9.226;2024-02-26T00:23:36;10.60;58.70
7254;DHT22;4060;49.186;9.226;2024-02-26T00:26:06;10.60;58.70
7254;DHT22;4060;49.186;9.226;2024-02-26T00:28:36;10.60;58.70
7254;DHT22;4060;49.186;9.226;2024-02-26T00:31:06;10.60;58.80
7254;DHT22;4060;49.186;9.226;2024-02-26T00:33:40;10.60;58.80
7254;DHT22;4060;49.186;9.226;2024-02-26T00:36:11;10.60;58.80
7254;DHT22;4060;49.186;9.226;2024-02-26T00:38:41;10.60;58.80
7254;DHT22;4060;49.186;9.226;2024-02-26T00:41:11;10.60;58.90
7254;DHT22;4060;49.186;9.226;2024-02-26T00:43:41;10.60;58.90
7254;DHT22;4060;49.186;9.226;2024-02-26T00:46:11;10.60;59.00
7254;DHT22;4060;49.186;9.226;2024-02-26T00:48:42;10.60;59.00
7254;DHT22;4060;49.186;9.226;2024-02-26T00:51:12;10.60;59.00
7254;DHT22;4060;49.186;9.226;2024-02-26T00:53:42;10.60;59.00
7254;DHT22;4060;49.186;9.226;2024-02-26T00:56:14;10.60;59.00
7254;DHT22;4060;49.186;9.226;2024-02-26T00:58:44;10.50;59.00
7254;DHT22;4060;49.186;9.226;2024-02-26T01:01:13;10.50;59.00
7254;DHT22;4060;49.186;9.226;2024-02-26T01:03:45;10.50;59.00
7254;DHT22;4060;49.186;9.226;2024-02-26T01:06:16;10.50;59.10
7254;DHT22;4060;49.186;9.226;2024-02-26T01:08:52;10.50;59.10
7254;DHT22;4060;49.186;9.226;2024-02-26T01:11:26;10.70;59.30
7254;DHT22;4060;49.186;9.226;2024-02-26T01:13:56;10.50;59.20
7254;DHT22;4060;49.186;9.226;2024-02-26T01:16:26;10.50;59.20
7254;DHT22;4060;49.186;9.226;2024-02-26T01:19:19;10.50;59.30
7254;DHT22;4060;49.186;9.226;2024-02-26T01:22:11;10.50;59.30
7254;DHT22;4060;49.186;9.226;2024-02-26T01:24:42;10.50;59.30
7254;DHT22;4060;49.186;9.226;2024-02-26T01:27:11;10.50;59.30
7254;DHT22;4060;49.186;9.226;2024-02-26T01:29:42;10.50;59.30
7254;DHT22;4060;49.186;9.226;2024-02-26T01:32:13;10.50;59.30
7254;DHT22;4060;49.186;9.226;2024-02-26T01:34:44;10.50;59.40
7254;DHT22;4060;49.186;9.226;2024-02-26T01:37:14;10.50;59.40
7254;DHT22;4060;49.186;9.226;2024-02-26T01:39:45;10.50;59.40
7254;DHT22;4060;49.186;9.226;2024-02-26T01:42:14;10.50;59.50
7254;DHT22;4060;49.186;9.226;2024-02-26T01:44:44;10.50;59.50
7254;DHT22;4060;49.186;9.226;2024-02-26T01:47:15;10.50;59.50
7254;DHT22;4060;49.186;9.226;2024-02-26T01:49:48;10.50;59.50
7254;DHT22;4060;49.186;9.226;2024-02-26T01:52:18;10.50;59.50
7254;DHT22;4060;49.186;9.226;2024-02-26T01:54:53;10.50;59.50
7254;DHT22;4060;49.186;9.226;2024-02-26T01:57:24;10.30;59.40
7254;DHT22;4060;49.186;9.226;2024-02-26T01:59:55;10.50;59.50
7254;DHT22;4060;49.186;9.226;2024-02-26T02:02:33;10.50;59.60
7254;DHT22;4060;49.186;9.226;2024-02-26T02:05:06;10.40;59.50
7254;DHT22;4060;49.186;9.226;2024-02-26T02:07:37;10.40;59.50
7254;DHT22;4060;49.186;9.226;2024-02-26T02:10:07;10.40;59.50
7254;DHT22;4060;49.186;9.226;2024-02-26T02:12:37;10.40;59.60
7254;DHT22;4060;49.186;9.226;2024-02-26T02:15:08;10.40;59.60
7254;DHT22;4060;49.186;9.226;2024-02-26T02:17:38;10.40;59.60
7254;DHT22;4060;49.186;9.226;2024-02-26T02:20:16;10.40;59.60
7254;DHT22;4060;49.186;9.226;2024-02-26T02:22:50;10.40;59.60
7254;DHT22;4060;49.186;9.226;2024-02-26T02:25:20;10.40;59.60
7254;DHT22;4060;49.186;9.226;2024-02-26T02:27:50;10.40;59.60
7254;DHT22;4060;49.186;9.226;2024-02-26T02:30:20;10.40;59.60
7254;DHT22;4060;49.186;9.226;2024-02-26T02:32:51;10.40;59.70
7254;DHT22;4060;49.186;9.226;2024-02-26T02:35:24;10.40;59.80
7254;DHT22;4060;49.186;9.226;2024-02-26T02:38:01;10.20;59.70
7254;DHT22;4060;49.186;9.226;2024-02-26T02:40:31;10.40;59.90
7254;DHT22;4060;49.186;9.226;2024-02-26T02:43:01;10.40;59.90
7254;DHT22;4060;49.186;9.226;2024-02-26T02:45:31;10.40;60.00
7254;DHT22;4060;49.186;9.226;2024-02-26T02:48:07;10.40;60.00
7254;DHT22;4060;49.186;9.226;2024-02-26T02:50:52;10.40;60.10
7254;DHT22;4060;49.186;9.226;2024-02-26T02:53:25;10.40;60.20
7254;DHT22;4060;49.186;9.226;2024-02-26T02:55:56;10.40;60.20
7254;DHT22;4060;49.186;9.226;2024-02-26T02:58:25;10.40;60.20
7254;DHT22;4060;49.186;9.226;2024-02-26T03:00:55;10.40;60.20
7254;DHT22;4060;49.186;9.226;2024-02-26T03:03:27;10.40;60.20
7254;DHT22;4060;49.186;9.226;2024-02-26T03:05:56;10.40;60.20
7254;DHT22;4060;49.186;9.226;2024-02-26T03:08:28;10.40;60.30
7254;DHT22;4060;49.186;9.226;2024-02-26T03:10:59;10.40;60.30
7254;DHT22;4060;49.186;9.226;2024-02-26T03:13:28;10.40;60.30
7254;DHT22;4060;49.186;9.226;2024-02-26T03:16:03;10.40;60.30
7254;DHT22;4060;49.186;9.226;2024-02-26T03:18:43;10.40;60.30
7254;DHT22;4060;49.186;9.226;2024-02-26T03:21:15;10.20;60.10
7254;DHT22;4060;49.186;9.226;2024-02-26T03:23:47;10.30;60.20
7254;DHT22;4060;49.186;9.226;2024-02-26T03:26:17;10.30;60.20
7254;DHT22;4060;49.186;9.226;2024-02-26T03:28:48;10.30;60.30
7254;DHT22;4060;49.186;9.226;2024-02-26T03:31:17;10.30;60.30
7254;DHT22;4060;49.186;9.226;2024-02-26T03:33:49;10.30;60.30
7254;DHT22;4060;49.186;9.226;2024-02-26T03:36:18;10.30;60.20
7254;DHT22;4060;49.186;9.226;2024-02-26T03:38:51;10.30;60.40
7254;DHT22;4060;49.186;9.226;2024-02-26T03:41:20;10.30;60.40
7254;DHT22;4060;49.186;9.226;2024-02-26T03:43:50;10.30;60.40
7254;DHT22;4060;49.186;9.226;2024-02-26T03:46:20;10.30;60.40
7254;DHT22;4060;49.186;9.226;2024-02-26T03:48:50;10.30;60.50
7254;DHT22;4060;49.186;9.226;2024-02-26T03:51:21;10.30;60.50
7254;DHT22;4060;49.186;9.226;2024-02-26T03:53:52;10.30;60.50
7254;DHT22;4060;49.186;9.226;2024-02-26T03:56:22;10.30;60.50
7254;DHT22;4060;49.186;9.226;2024-02-26T03:58:55;10.30;60.60
7254;DHT22;4060;49.186;9.226;2024-02-26T04:01:32;10.30;60.70
7254;DHT22;4060;49.186;9.226;2024-02-26T04:04:01;10.30;60.70
7254;DHT22;4060;49.186;9.226;2024-02-26T04:06:34;10.30;60.70
7254;DHT22;4060;49.186;9.226;2024-02-26T04:09:21;10.30;60.90
7254;DHT22;4060;49.186;9.226;2024-02-26T04:11:56;10.30;60.80
7254;DHT22;4060;49.186;9.226;2024-02-26T04:14:36;10.40;61.10
7254;DHT22;4060;49.186;9.226;2024-02-26T04:17:13;10.30;61.00
7254;DHT22;4060;49.186;9.226;2024-02-26T04:19:54;10.30;61.20
7254;DHT22;4060;49.186;9.226;2024-02-26T04:22:39;10.40;61.30
7254;DHT22;4060;49.186;9.226;2024-02-26T04:25:36;10.30;61.40
7254;DHT22;4060;49.186;9.226;2024-02-26T04:28:21;10.30;61.40
7254;DHT22;4060;49.186;9.226;2024-02-26T04:30:54;10.40;61.60
7254;DHT22;4060;49.186;9.226;2024-02-26T04:33:28;10.10;61.30
7254;DHT22;4060;49.186;9.226;2024-02-26T04:36:36;10.20;61.50
7254;DHT22;4060;49.186;9.226;2024-02-26T04:39:24;10.40;61.90
7254;DHT22;4060;49.186;9.226;2024-02-26T04:42:05;10.20;61.50
7254;DHT22;4060;49.186;9.226;2024-02-26T04:44:38;10.20;61.80
7254;DHT22;4060;49.186;9.226;2024-02-26T04:47:08;10.20;61.70
7254;DHT22;4060;49.186;9.226;2024-02-26T04:49:44;10.20;61.80
7254;DHT22;4060;49.186;9.226;2024-02-26T04:52:41;10.10;61.90
7254;DHT22;4060;49.186;9.226;2024-02-26T04:55:29;10.20;62.00
7254;DHT22;4060;49.186;9.226;2024-02-26T04:58:15;10.20;62.00
7254;DHT22;4060;49.186;9.226;2024-02-26T05:00:53;10.20;62.10
7254;DHT22;4060;49.186;9.226;2024-02-26T05:03:23;10.20;62.10
7254;DHT22;4060;49.186;9.226;2024-02-26T05:05:53;10.20;62.20
7254;DHT22;4060;49.186;9.226;2024-02-26T05:08:25;10.30;62.40
7254;DHT22;4060;49.186;9.226;2024-02-26T05:10:56;10.30;62.40
7254;DHT22;4060;49.186;9.226;2024-02-26T05:13:28;10.20;62.30
7254;DHT22;4060;49.186;9.226;2024-02-26T05:15:58;10.30;62.50
7254;DHT22;4060;49.186;9.226;2024-02-26T05:18:28;10.30;62.60
7254;DHT22;4060;49.186;9.226;2024-02-26T05:20:58;10.20;62.50
7254;DHT22;4060;49.186;9.226;2024-02-26T05:23:28;10.20;62.60
7254;DHT22;4060;49.186;9.226;2024-02-26T05:25:57;10.30;62.70
7254;DHT22;4060;49.186;9.226;2024-02-26T05:28:30;10.30;62.80
7254;DHT22;4060;49.186;9.226;2024-02-26T05:31:00;10.30;62.80
7254;DHT22;4060;49.186;9.226;2024-02-26T05:33:36;10.30;62.90
7254;DHT22;4060;49.186;9.226;2024-02-26T05:36:06;10.30;62.90
7254;DHT22;4060;49.186;9.226;2024-02-26T05:38:36;10.20;62.80
7254;DHT22;4060;49.186;9.226;2024-02-26T05:41:06;10.30;63.00
7254;DHT22;4060;49.186;9.226;2024-02-26T05:43:39;10.30;63.00
7254;DHT22;4060;49.186;9.226;2024-02-26T05:46:09;10.20;62.90
7254;DHT22;4060;49.186;9.226;2024-02-26T05:48:39;10.20;62.80
7254;DHT22;4060;49.186;9.226;2024-02-26T05:51:08;10.20;62.90
7254;DHT22;4060;49.186;9.226;2024-02-26T05:53:39;10.30;63.00
7254;DHT22;4060;49.186;9.226;2024-02-26T05:56:08;10.20;62.80
7254;DHT22;4060;49.186;9.226;2024-02-26T05:58:40;10.20;62.90
7254;DHT22;4060;49.186;9.226;2024-02-26T06:01:11;10.20;62.90
7254;DHT22;4060;49.186;9.226;2024-02-26T06:03:40;10.20;62.90
7254;DHT22;4060;49.186;9.226;2024-02-26T06:06:14;10.20;63.00
7254;DHT22;4060;49.186;9.226;2024-02-26T06:08:50;10.10;63.00
7254;DHT22;4060;49.186;9.226;2024-02-26T06:11:20;10.20;63.00
7254;DHT22;4060;49.186;9.226;2024-02-26T06:13:52;10.20;63.00
7254;DHT22;4060;49.186;9.226;2024-02-26T06:16:22;10.20;63.00
7254;DHT22;4060;49.186;9.226;2024-02-26T06:18:52;10.20;63.10
7254;DHT22;4060;49.186;9.226;2024-02-26T06:21:22;10.20;63.20
7254;DHT22;4060;49.186;9.226;2024-02-26T06:23:52;10.20;63.20
7254;DHT22;4060;49.186;9.226;2024-02-26T06:26:21;10.20;63.40
7254;DHT22;4060;49.186;9.226;2024-02-26T06:28:53;10.20;63.30
7254;DHT22;4060;49.186;9.226;2024-02-26T06:31:23;10.20;63.20
7254;DHT22;4060;49.186;9.226;2024-02-26T06:33:54;10.20;63.20
7254;DHT22;4060;49.186;9.226;2024-02-26T06:36:24;10.20;63.20
7254;DHT22;4060;49.186;9.226;2024-02-26T06:38:53;10.20;63.20
7254;DHT22;4060;49.186;9.226;2024-02-26T06:41:23;10.20;63.20
7254;DHT22;4060;49.186;9.226;2024-02-26T06:43:57;10.20;63.20
7254;DHT22;4060;49.186;9.226;2024-02-26T06:46:27;10.20;63.20
7254;DHT22;4060;49.186;9.226;2024-02-26T06:48:58;10.20;63.30
7254;DHT22;4060;49.186;9.226;2024-02-26T06:51:28;10.20;63.30
7254;DHT22;4060;49.186;9.226;2024-02-26T06:53:58;10.20;63.40
7254;DHT22;4060;49.186;9.226;2024-02-26T06:56:28;10.20;63.40
7254;DHT22;4060;49.186;9.226;2024-02-26T06:58:59;10.20;63.50
7254;DHT22;4060;49.186;9.226;2024-02-26T07:01:29;10.20;63.50
7254;DHT22;4060;49.186;9.226;2024-02-26T07:03:58;10.20;63.50
7254;DHT22;4060;49.186;9.226;2024-02-26T07:06:28;10.20;63.50
7254;DHT22;4060;49.186;9.226;2024-02-26T07:09:00;10.20;63.50
7254;DHT22;4060;49.186;9.226;2024-02-26T07:11:29;10.20;63.60
7254;DHT22;4060;49.186;9.226;2024-02-26T07:14:01;10.20;63.60
7254;DHT22;4060;49.186;9.226;2024-02-26T07:16:31;10.20;63.60
7254;DHT22;4060;49.186;9.226;2024-02-26T07:19:01;10.20;63.70
7254;DHT22;4060;49.186;9.226;2024-02-26T07:21:31;10.20;63.70
7254;DHT22;4060;49.186;9.226;2024-02-26T07:24:02;10.20;63.70
7254;DHT22;4060;49.186;9.226;2024-02-26T07:26:31;10.20;63.80
7254;DHT22;4060;49.186;9.226;2024-02-26T07:29:03;10.20;63.90
7254;DHT22;4060;49.186;9.226;2024-02-26T07:31:34;10.20;63.90
7254;DHT22;4060;49.186;9.226;2024-02-26T07:34:04;10.20;63.90
7254;DHT22;4060;49.186;9.226;2024-02-26T07:36:37;10.20;64.00
7254;DHT22;4060;49.186;9.226;2024-02-26T07:39:07;10.20;64.00
7254;DHT22;4060;49.186;9.226;2024-02-26T07:41:37;10.20;64.20
7254;DHT22;4060;49.186;9.226;2024-02-26T07:44:11;10.20;64.20
7254;DHT22;4060;49.186;9.226;2024-02-26T07:46:41;10.20;64.20
7254;DHT22;4060;49.186;9.226;2024-02-26T07:49:13;10.20;64.30
7254;DHT22;4060;49.186;9.226;2024-02-26T07:51:44;10.20;64.30
7254;DHT22;4060;49.186;9.226;2024-02-26T07:54:14;10.20;64.30
7254;DHT22;4060;49.186;9.226;2024-02-26T07:56:44;10.20;64.30
7254;DHT22;4060;49.186;9.226;2024-02-26T07:59:16;10.20;64.40
7254;DHT22;4060;49.186;9.226;2024-02-26T08:01:51;10.20;64.40
7254;DHT22;4060;49.186;9.226;2024-02-26T08:04:21;10.20;64.40
7254;DHT22;4060;49.186;9.226;2024-02-26T08:06:51;10.20;64.50
7254;DHT22;4060;49.186;9.226;2024-02-26T08:09:22;10.20;64.40
7254;DHT22;4060;49.186;9.226;2024-02-26T08:11:52;10.20;64.50
7254;DHT22;4060;49.186;9.226;2024-02-26T08:14:23;10.20;64.50
7254;DHT22;4060;49.186;9.226;2024-02-26T08:16:53;10.20;64.40
7254;DHT22;4060;49.186;9.226;2024-02-26T08:19:23;10.20;64.40
7254;DHT22;4060;49.186;9.226;2024-02-26T08:21:53;10.20;64.40
7254;DHT22;4060;49.186;9.226;2024-02-26T08:24:23;10.20;64.40
7254;DHT22;4060;49.186;9.226;2024-02-26T08:26:53;10.20;64.50
7254;DHT22;4060;49.186;9.226;2024-02-26T08:29:24;10.20;64.60
7254;DHT22;4060;49.186;9.226;2024-02-26T08:31:54;10.20;64.80
7254;DHT22;4060;49.186;9.226;2024-02-26T08:34:23;10.20;64.90
7254;DHT22;4060;49.186;9.226;2024-02-26T08:36:53;10.20;65.00
7254;DHT22;4060;49.186;9.226;2024-02-26T08:39:23;10.20;65.00
7254;DHT22;4060;49.186;9.226;2024-02-26T08:41:53;10.20;65.10
7254;DHT22;4060;49.186;9.226;2024-02-26T08:44:24;10.20;65.10
7254;DHT22;4060;49.186;9.226;2024-02-26T08:46:54;10.20;65.70
7254;DHT22;4060;49.186;9.226;2024-02-26T08:49:24;10.20;65.10
7254;DHT22;4060;49.186;9.226;2024-02-26T08:51:55;10.20;65.10
7254;DHT22;4060;49.186;9.226;2024-02-26T08:54:26;10.20;65.10
7254;DHT22;4060;49.186;9.226;2024-02-26T08:56:56;10.20;65.30
7254;DHT22;4060;49.186;9.226;2024-02-26T08:59:27;10.30;65.40
7254;DHT22;4060;49.186;9.226;2024-02-26T09:01:57;10.30;65.60
7254;DHT22;4060;49.186;9.226;2024-02-26T09:04:26;10.30;65.60
7254;DHT22;4060;49.186;9.226;2024-02-26T09:06:55;10.30;65.70
7254;DHT22;4060;49.186;9.226;2024-02-26T09:09:25;10.30;65.80
7254;DHT22;4060;49.186;9.226;2024-02-26T09:11:54;10.30;65.90
7254;DHT22;4060;49.186;9.226;2024-02-26T09:14:24;10.30;66.00
7254;DHT22;4060;49.186;9.226;2024-02-26T09:16:56;10.40;66.20
7254;DHT22;4060;49.186;9.226;2024-02-26T09:19:26;10.30;66.40
7254;DHT22;4060;49.186;9.226;2024-02-26T09:21:55;10.40;66.60
7254;DHT22;4060;49.186;9.226;2024-02-26T09:24:25;10.40;66.70
7254;DHT22;4060;49.186;9.226;2024-02-26T09:26:56;10.40;66.80
7254;DHT22;4060;49.186;9.226;2024-02-26T09:29:25;10.40;66.90
7254;DHT22;4060;49.186;9.226;2024-02-26T09:31:58;10.40;67.00
7254;DHT22;4060;49.186;9.226;2024-02-26T09:34:27;10.50;67.30
7254;DHT22;4060;49.186;9.226;2024-02-26T09:36:57;10.40;67.20
7254;DHT22;4060;49.186;9.226;2024-02-26T09:39:27;10.50;67.40
7254;DHT22;4060;49.186;9.226;2024-02-26T09:41:57;10.50;67.30
7254;DHT22;4060;49.186;9.226;2024-02-26T09:44:30;10.50;67.40
7254;DHT22;4060;49.186;9.226;2024-02-26T09:47:06;10.50;67.50
7254;DHT22;4060;49.186;9.226;2024-02-26T09:49:37;10.50;67.60
7254;DHT22;4060;49.186;9.226;2024-02-26T09:52:09;10.50;67.80
7254;DHT22;4060;49.186;9.226;2024-02-26T09:54:38;10.60;68.00
7254;DHT22;4060;49.186;9.226;2024-02-26T09:57:12;10.60;68.00
7254;DHT22;4060;49.186;9.226;2024-02-26T09:59:44;10.60;68.20
7254;DHT22;4060;49.186;9.226;2024-02-26T10:02:19;10.60;68.30
7254;DHT22;4060;49.186;9.226;2024-02-26T10:04:50;10.60;68.40
7254;DHT22;4060;49.186;9.226;2024-02-26T10:07:20;10.60;68.50
7254;DHT22;4060;49.186;9.226;2024-02-26T10:09:50;10.70;68.70
7254;DHT22;4060;49.186;9.226;2024-02-26T10:12:20;10.70;68.80
7254;DHT22;4060;49.186;9.226;2024-02-26T10:14:49;10.70;68.90
7254;DHT22;4060;49.186;9.226;2024-02-26T10:17:21;10.70;69.00
7254;DHT22;4060;49.186;9.226;2024-02-26T10:19:51;10.70;69.00
7254;DHT22;4060;49.186;9.226;2024-02-26T10:22:24;10.80;69.10
7254;DHT22;4060;49.186;9.226;2024-02-26T10:24:55;10.80;69.20
7254;DHT22;4060;49.186;9.226;2024-02-26T10:27:25;10.90;69.40
7254;DHT22;4060;49.186;9.226;2024-02-26T10:29:57;10.90;69.40
7254;DHT22;4060;49.186;9.226;2024-02-26T10:32:29;10.90;69.50
7254;DHT22;4060;49.186;9.226;2024-02-26T10:34:58;10.90;69.50
7254;DHT22;4060;49.186;9.226;2024-02-26T10:37:28;10.90;69.60
7254;DHT22;4060;49.186;9.226;2024-02-26T10:39:57;11.00;69.70
7254;DHT22;4060;49.186;9.226;2024-02-26T10:42:27;11.00;69.70
7254;DHT22;4060;49.186;9.226;2024-02-26T10:44:58;11.00;69.80
7254;DHT22;4060;49.186;9.226;2024-02-26T10:47:31;11.10;70.00
7254;DHT22;4060;49.186;9.226;2024-02-26T10:50:03;11.10;70.10
7254;DHT22;4060;49.186;9.226;2024-02-26T10:52:35;11.10;70.00
7254;DHT22;4060;49.186;9.226;2024-02-26T10:55:05;11.10;70.00
7254;DHT22;4060;49.186;9.226;2024-02-26T10:57:38;11.20;70.00
7254;DHT22;4060;49.186;9.226;2024-02-26T11:00:13;11.20;70.00
7254;DHT22;4060;49.186;9.226;2024-02-26T11:02:45;11.20;70.00
7254;DHT22;4060;49.186;9.226;2024-02-26T11:05:15;11.30;70.10
7254;DHT22;4060;49.186;9.226;2024-02-26T11:07:46;11.30;70.10
7254;DHT22;4060;49.186;9.226;2024-02-26T11:10:17;11.30;70.10
7254;DHT22;4060;49.186;9.226;2024-02-26T11:12:46;11.40;70.20
7254;DHT22;4060;49.186;9.226;2024-02-26T11:15:17;11.40;70.10
7254;DHT22;4060;49.186;9.226;2024-02-26T11:17:49;11.40;70.10
7254;DHT22;4060;49.186;9.226;2024-02-26T11:20:22;11.50;70.20
7254;DHT22;4060;49.186;9.226;2024-02-26T11:22:52;11.50;70.20
7254;DHT22;4060;49.186;9.226;2024-02-26T11:25:21;11.50;70.20
7254;DHT22;4060;49.186;9.226;2024-02-26T11:27:53;11.50;70.00
7254;DHT22;4060;49.186;9.226;2024-02-26T11:30:25;11.60;70.20
7254;DHT22;4060;49.186;9.226;2024-02-26T11:33:01;11.60;70.10
7254;DHT22;4060;49.186;9.226;2024-02-26T11:35:30;11.60;70.10
7254;DHT22;4060;49.186;9.226;2024-02-26T11:38:00;11.70;70.10
7254;DHT22;4060;49.186;9.226;2024-02-26T11:40:29;11.70;70.00
7254;DHT22;4060;49.186;9.226;2024-02-26T11:43:00;11.70;69.90
7254;DHT22;4060;49.186;9.226;2024-02-26T11:45:50;11.80;69.90
7254;DHT22;4060;49.186;9.226;2024-02-26T11:48:29;11.80;69.80
7254;DHT22;4060;49.186;9.226;2024-02-26T11:50:59;11.80;69.60
7254;DHT22;4060;49.186;9.226;2024-02-26T11:53:30;11.90;69.50
7254;DHT22;4060;49.186;9.226;2024-02-26T11:56:23;11.90;69.30
7254;DHT22;4060;49.186;9.226;2024-02-26T11:59:10;11.90;69.10
7254;DHT22;4060;49.186;9.226;2024-02-26T12:01:42;12.00;69.10
7254;DHT22;4060;49.186;9.226;2024-02-26T12:04:18;12.00;68.90
7254;DHT22;4060;49.186;9.226;2024-02-26T12:06:52;12.00;68.70
7254;DHT22;4060;49.186;9.226;2024-02-26T12:09:36;12.10;68.70
7254;DHT22;4060;49.186;9.226;2024-02-26T12:12:06;12.10;68.70
7254;DHT22;4060;49.186;9.226;2024-02-26T12:14:38;12.10;68.60
7254;DHT22;4060;49.186;9.226;2024-02-26T12:17:15;12.20;68.60
7254;DHT22;4060;49.186;9.226;2024-02-26T12:19:51;12.20;68.50
7254;DHT22;4060;49.186;9.226;2024-02-26T12:22:20;12.20;68.30
7254;DHT22;4060;49.186;9.226;2024-02-26T12:24:59;12.20;68.20
7254;DHT22;4060;49.186;9.226;2024-02-26T12:27:30;12.30;68.10
7254;DHT22;4060;49.186;9.226;2024-02-26T12:30:00;12.30;68.00
7254;DHT22;4060;49.186;9.226;2024-02-26T12:32:30;12.30;68.00
7254;DHT22;4060;49.186;9.226;2024-02-26T12:35:02;12.40;68.00
7254;DHT22;4060;49.186;9.226;2024-02-26T12:37:32;12.40;67.90
7254;DHT22;4060;49.186;9.226;2024-02-26T12:40:05;12.50;67.90
7254;DHT22;4060;49.186;9.226;2024-02-26T12:42:36;12.50;67.90
7254;DHT22;4060;49.186;9.226;2024-02-26T12:45:08;12.50;67.80
7254;DHT22;4060;49.186;9.226;2024-02-26T12:47:39;12.60;67.70
7254;DHT22;4060;49.186;9.226;2024-02-26T12:50:12;12.60;67.60
7254;DHT22;4060;49.186;9.226;2024-02-26T12:52:41;12.60;67.50
7254;DHT22;4060;49.186;9.226;2024-02-26T12:55:15;12.70;67.40
7254;DHT22;4060;49.186;9.226;2024-02-26T12:57:46;12.70;67.40
7254;DHT22;4060;49.186;9.226;2024-02-26T13:00:18;12.80;67.30
7254;DHT22;4060;49.186;9.226;2024-02-26T13:02:47;12.80;67.10
7254;DHT22;4060;49.186;9.226;2024-02-26T13:05:19;12.80;67.00
7254;DHT22;4060;49.186;9.226;2024-02-26T13:07:49;12.90;66.80
7254;DHT22;4060;49.186;9.226;2024-02-26T13:10:20;12.90;67.40
7254;DHT22;4060;49.186;9.226;2024-02-26T13:12:50;12.90;66.60
7254;DHT22;4060;49.186;9.226;2024-02-26T13:15:20;13.00;66.60
7254;DHT22;4060;49.186;9.226;2024-02-26T13:17:50;13.00;66.50
7254;DHT22;4060;49.186;9.226;2024-02-26T13:20:30;13.00;66.30
7254;DHT22;4060;49.186;9.226;2024-02-26T13:23:02;13.10;66.30
7254;DHT22;4060;49.186;9.226;2024-02-26T13:25:32;13.10;66.10
7254;DHT22;4060;49.186;9.226;2024-02-26T13:28:09;13.10;66.00
7254;DHT22;4060;49.186;9.226;2024-02-26T13:30:38;13.10;65.90
7254;DHT22;4060;49.186;9.226;2024-02-26T13:33:09;13.20;65.90
7254;DHT22;4060;49.186;9.226;2024-02-26T13:35:42;13.20;65.70
7254;DHT22;4060;49.186;9.226;2024-02-26T13:38:11;13.20;65.60
7254;DHT22;4060;49.186;9.226;2024-02-26T13:40:41;13.30;65.60
7254;DHT22;4060;49.186;9.226;2024-02-26T13:43:10;13.30;65.50
7254;DHT22;4060;49.186;9.226;2024-02-26T13:45:40;13.30;65.40
7254;DHT22;4060;49.186;9.226;2024-02-26T13:48:11;13.30;65.20
7254;DHT22;4060;49.186;9.226;2024-02-26T13:50:43;13.40;65.30
7254;DHT22;4060;49.186;9.226;2024-02-26T13:53:13;13.40;65.10
7254;DHT22;4060;49.186;9.226;2024-02-26T13:55:42;13.40;65.00
7254;DHT22;4060;49.186;9.226;2024-02-26T13:58:13;13.40;65.00
7254;DHT22;4060;49.186;9.226;2024-02-26T14:00:42;13.50;65.00
7254;DHT22;4060;49.186;9.226;2024-02-26T14:03:12;13.50;64.90
7254;DHT22;4060;49.186;9.226;2024-02-26T14:05:43;13.50;64.90
7254;DHT22;4060;49.186;9.226;2024-02-26T14:08:13;13.50;64.70
7254;DHT22;4060;49.186;9.226;2024-02-26T14:10:43;13.60;64.70
7254;DHT22;4060;49.186;9.226;2024-02-26T14:13:12;13.60;64.50
7254;DHT22;4060;49.186;9.226;2024-02-26T14:15:42;13.60;64.40
7254;DHT22;4060;49.186;9.226;2024-02-26T14:18:12;13.60;64.20
7254;DHT22;4060;49.186;9.226;2024-02-26T14:20:43;13.60;64.10
7254;DHT22;4060;49.186;9.226;2024-02-26T14:23:13;13.60;63.90
7254;DHT22;4060;49.186;9.226;2024-02-26T14:25:42;13.70;64.00
7254;DHT22;4060;49.186;9.226;2024-02-26T14:28:12;13.70;63.80
7254;DHT22;4060;49.186;9.226;2024-02-26T14:30:42;13.70;63.70
7254;DHT22;4060;49.186;9.226;2024-02-26T14:33:11;13.70;63.50
7254;DHT22;4060;49.186;9.226;2024-02-26T14:35:43;13.80;63.50
7254;DHT22;4060;49.186;9.226;2024-02-26T14:38:13;13.80;63.30
7254;DHT22;4060;49.186;9.226;2024-02-26T14:40:42;13.80;63.10
7254;DHT22;4060;49.186;9.226;2024-02-26T14:43:13;13.80;62.90
7254;DHT22;4060;49.186;9.226;2024-02-26T14:45:42;13.80;62.90
7254;DHT22;4060;49.186;9.226;2024-02-26T14:48:12;13.80;62.70
7254;DHT22;4060;49.186;9.226;2024-02-26T14:50:44;13.80;62.50
7254;DHT22;4060;49.186;9.226;2024-02-26T14:53:13;13.80;62.20
7254;DHT22;4060;49.186;9.226;2024-02-26T14:55:43;13.80;62.20
7254;DHT22;4060;49.186;9.226;2024-02-26T14:58:13;13.90;62.20
7254;DHT22;4060;49.186;9.226;2024-02-26T15:00:42;13.80;61.90
7254;DHT22;4060;49.186;9.226;2024-02-26T15:03:12;13.90;61.90
7254;DHT22;4060;49.186;9.226;2024-02-26T15:05:46;13.90;61.80
7254;DHT22;4060;49.186;9.226;2024-02-26T15:08:15;13.90;61.70
7254;DHT22;4060;49.186;9.226;2024-02-26T15:10:45;13.90;61.70
7254;DHT22;4060;49.186;9.226;2024-02-26T15:13:16;13.90;61.50
7254;DHT22;4060;49.186;9.226;2024-02-26T15:15:46;13.90;61.50
7254;DHT22;4060;49.186;9.226;2024-02-26T15:18:16;13.90;61.50
7254;DHT22;4060;49.186;9.226;2024-02-26T15:20:46;13.90;61.30
7254;DHT22;4060;49.186;9.226;2024-02-26T15:23:15;13.90;61.10
7254;DHT22;4060;49.186;9.226;2024-02-26T15:25:45;13.90;61.00
7254;DHT22;4060;49.186;9.226;2024-02-26T15:28:14;13.90;61.00
7254;DHT22;4060;49.186;9.226;2024-02-26T15:30:43;13.90;60.80
7254;DHT22;4060;49.186;9.226;2024-02-26T15:33:13;13.90;60.80
7254;DHT22;4060;49.186;9.226;2024-02-26T15:35:46;14.00;60.80
7254;DHT22;4060;49.186;9.226;2024-02-26T15:38:15;13.90;60.60
7254;DHT22;4060;49.186;9.226;2024-02-26T15:40:45;13.90;60.50
7254;DHT22;4060;49.186;9.226;2024-02-26T15:43:14;13.90;60.40
7254;DHT22;4060;49.186;9.226;2024-02-26T15:45:45;13.90;60.50
7254;DHT22;4060;49.186;9.226;2024-02-26T15:48:15;13.90;60.40
7254;DHT22;4060;49.186;9.226;2024-02-26T15:50:47;14.00;60.50
7254;DHT22;4060;49.186;9.226;2024-02-26T15:53:16;14.00;60.40
7254;DHT22;4060;49.186;9.226;2024-02-26T15:55:46;14.00;60.40
7254;DHT22;4060;49.186;9.226;2024-02-26T15:58:15;13.90;60.30
7254;DHT22;4060;49.186;9.226;2024-02-26T16:00:45;14.00;60.40
7254;DHT22;4060;49.186;9.226;2024-02-26T16:03:14;14.00;60.30
7254;DHT22;4060;49.186;9.226;2024-02-26T16:05:47;14.00;59.80
7254;DHT22;4060;49.186;9.226;2024-02-26T16:08:19;14.00;59.50
7254;DHT22;4060;49.186;9.226;2024-02-26T16:10:51;14.00;59.30
7254;DHT22;4060;49.186;9.226;2024-02-26T16:13:21;14.00;59.40
7254;DHT22;4060;49.186;9.226;2024-02-26T16:15:54;14.00;59.50
7254;DHT22;4060;49.186;9.226;2024-02-26T16:18:34;14.00;59.60
7254;DHT22;4060;49.186;9.226;2024-02-26T16:21:07;14.00;59.60
7254;DHT22;4060;49.186;9.226;2024-02-26T16:23:36;14.00;59.60
7254;DHT22;4060;49.186;9.226;2024-02-26T16:26:06;14.00;59.50
7254;DHT22;4060;49.186;9.226;2024-02-26T16:28:36;14.00;59.50
7254;DHT22;4060;49.186;9.226;2024-02-26T16:31:06;13.90;59.40